createdAt,value
2019-05-22T00:02:17.987Z,2.47
2019-05-22T00:04:56.966Z,7.30
2019-05-22T00:07:27.466Z,3.30
2019-05-22T00:09:58.690Z,4.20
2019-05-22T00:12:28.499Z,4.40
2019-05-22T00:15:00.714Z,4.07
2019-05-22T00:17:32.167Z,4.80
2019-05-22T00:20:05.793Z,5.10
2019-05-22T00:22:37.187Z,5.23
2019-05-22T00:25:11.927Z,7.27
2019-05-22T00:27:41.433Z,4.27
2019-05-22T00:30:14.273Z,2.77
2019-05-22T00:32:44.529Z,5.70
2019-05-22T00:35:16.484Z,3.60
2019-05-22T00:37:45.802Z,2.63
2019-05-22T00:40:17.650Z,3.97
2019-05-22T00:43:03.496Z,3.20
2019-05-22T00:45:22.910Z,4.37
2019-05-22T00:47:53.423Z,5.87
2019-05-22T00:50:28.930Z,2.90
2019-05-22T00:53:02.431Z,4.57
2019-05-22T00:55:48.993Z,2.30
2019-05-22T00:58:33.072Z,3.43
2019-05-22T01:01:04.451Z,3.30
2019-05-22T01:07:12.169Z,3.37
2019-05-22T01:09:44.563Z,3.80
2019-05-22T01:12:21.755Z,3.13
2019-05-22T01:14:53.453Z,3.17
2019-05-22T01:17:24.132Z,4.50
2019-05-22T01:19:54.555Z,4.47
2019-05-22T01:22:26.438Z,3.90
2019-05-22T01:24:56.941Z,3.93
2019-05-22T01:27:27.411Z,4.03
2019-05-22T01:29:57.904Z,6.27
2019-05-22T01:39:44.912Z,3.50
2019-05-22T01:42:15.791Z,3.23
2019-05-22T01:44:59.845Z,3.60
2019-05-22T01:47:33.284Z,7.40
2019-05-22T01:50:02.520Z,4.37
2019-05-22T01:52:31.793Z,3.90
2019-05-22T01:55:01.171Z,6.40
2019-05-22T01:57:30.667Z,5.63
2019-05-22T01:59:59.932Z,5.93
2019-05-22T02:02:30.545Z,5.07
2019-05-22T02:05:01.745Z,4.97
2019-05-22T02:07:32.165Z,7.33
2019-05-22T02:10:01.955Z,6.07
2019-05-22T02:12:52.376Z,4.70
2019-05-22T02:15:21.926Z,7.93
2019-05-22T02:17:52.205Z,6.10
2019-05-22T02:20:22.631Z,5.73
2019-05-22T02:22:52.055Z,5.43
2019-05-22T02:25:21.480Z,5.80
2019-05-22T02:27:51.625Z,5.67
2019-05-22T02:30:23.312Z,5.00
2019-05-22T02:32:53.006Z,6.83
2019-05-22T02:35:22.511Z,4.27
2019-05-22T02:37:51.924Z,5.37
2019-05-22T02:40:27.461Z,4.10
2019-05-22T02:42:58.521Z,5.07
2019-05-22T02:45:29.128Z,5.00
2019-05-22T02:48:00.932Z,4.43
2019-05-22T02:50:33.409Z,5.00
2019-05-22T02:53:07.841Z,5.53
2019-05-22T02:55:37.747Z,5.57
2019-05-22T02:58:07.859Z,3.90
2019-05-22T03:00:58.408Z,4.33
2019-05-22T03:03:28.954Z,6.83
2019-05-22T03:06:05.692Z,4.37
2019-05-22T03:09:09.960Z,5.23
2019-05-22T03:11:42.603Z,5.07
2019-05-22T03:14:13.652Z,5.73
2019-05-22T03:16:52.032Z,6.20
2019-05-22T03:19:32.381Z,6.13
2019-05-22T03:22:05.122Z,5.70
2019-05-22T03:24:36.379Z,8.07
2019-05-22T03:27:07.414Z,6.13
2019-05-22T03:29:52.540Z,6.03
2019-05-22T03:32:22.756Z,7.13
2019-05-22T03:34:53.362Z,6.70
2019-05-22T03:37:23.573Z,8.90
2019-05-22T03:39:52.790Z,6.00
2019-05-22T03:42:22.932Z,6.57
2019-05-22T03:44:53.718Z,5.57
2019-05-22T03:47:25.603Z,5.63
2019-05-22T03:49:56.637Z,4.57
2019-05-22T03:52:26.297Z,4.33
2019-05-22T03:54:55.819Z,4.23
2019-05-22T03:57:25.722Z,5.77
2019-05-22T03:59:56.656Z,5.67
2019-05-22T04:02:27.060Z,5.00
2019-05-22T04:04:56.775Z,5.27
2019-05-22T04:07:26.925Z,4.83
2019-05-22T04:09:57.638Z,4.10
2019-05-22T04:12:27.425Z,4.87
2019-05-22T04:14:57.230Z,4.13
2019-05-22T04:17:27.691Z,4.83
2019-05-22T04:19:57.051Z,2.90
2019-05-22T04:22:27.076Z,3.87
2019-05-22T04:24:56.474Z,3.90
2019-05-22T04:27:26.022Z,5.53
2019-05-22T04:29:55.835Z,5.53
2019-05-22T04:32:30.432Z,5.60
2019-05-22T04:34:59.843Z,5.70
2019-05-22T04:37:31.004Z,5.20
2019-05-22T04:40:49.621Z,5.60
2019-05-22T04:43:21.296Z,4.33
2019-05-22T04:45:51.374Z,3.90
2019-05-22T04:48:22.005Z,4.33
2019-05-22T04:50:52.179Z,3.73
2019-05-22T04:53:22.032Z,6.27
2019-05-22T04:55:52.584Z,4.40
2019-05-22T04:58:30.496Z,3.97
2019-05-22T05:00:59.941Z,4.50
2019-05-22T05:03:30.243Z,4.67
2019-05-22T05:06:00.183Z,4.50
2019-05-22T05:08:30.169Z,6.13
2019-05-22T05:11:03.142Z,4.77
2019-05-22T05:13:32.886Z,4.03
2019-05-22T05:16:02.409Z,3.57
2019-05-22T05:18:32.585Z,3.13
2019-05-22T05:21:02.003Z,3.70
2019-05-22T05:23:31.388Z,3.27
2019-05-22T05:26:00.728Z,3.33
2019-05-22T05:28:30.692Z,3.60
2019-05-22T05:31:00.169Z,2.93
2019-05-22T05:33:31.055Z,3.40
2019-05-22T05:36:00.991Z,3.70
2019-05-22T05:38:36.179Z,3.10
2019-05-22T05:41:06.208Z,3.80
2019-05-22T05:43:35.504Z,3.87
2019-05-22T05:46:05.808Z,4.00
2019-05-22T05:48:36.025Z,3.90
2019-05-22T05:51:43.125Z,4.30
2019-05-22T05:54:16.277Z,5.13
2019-05-22T05:56:49.940Z,4.50
2019-05-22T05:59:22.747Z,5.77
2019-05-22T06:02:00.549Z,4.67
2019-05-22T06:04:36.010Z,7.77
2019-05-22T06:07:21.050Z,5.20
2019-05-22T06:10:42.622Z,6.47
2019-05-22T06:13:12.877Z,5.27
2019-05-22T06:16:29.251Z,5.93
2019-05-22T06:18:59.396Z,5.70
2019-05-22T06:21:29.498Z,5.77
2019-05-22T06:24:21.172Z,7.23
2019-05-22T06:27:18.894Z,6.43
2019-05-22T06:30:10.541Z,6.33
2019-05-22T06:33:36.759Z,6.67
2019-05-22T06:36:12.172Z,5.80
2019-05-22T06:39:11.923Z,7.43
2019-05-22T06:41:44.088Z,11.03
2019-05-22T06:44:46.162Z,7.97
2019-05-22T06:47:21.661Z,12.20
2019-05-22T06:49:57.309Z,10.07
2019-05-22T06:52:27.360Z,10.63
2019-05-22T06:54:57.979Z,12.50
2019-05-22T06:57:32.075Z,15.60
2019-05-22T07:00:21.741Z,11.40
2019-05-22T07:02:51.117Z,9.93
2019-05-22T07:05:20.863Z,10.30
2019-05-22T07:07:50.590Z,10.87
2019-05-22T07:10:21.601Z,11.10
2019-05-22T07:12:51.901Z,10.80
2019-05-22T07:15:50.269Z,15.97
2019-05-22T07:18:22.563Z,12.30
2019-05-22T07:20:54.824Z,12.23
2019-05-22T07:23:30.486Z,15.13
2019-05-22T07:26:02.223Z,14.00
2019-05-22T07:28:33.331Z,19.50
2019-05-22T07:31:04.479Z,25.63
2019-05-22T07:33:35.248Z,27.13
2019-05-22T07:36:10.221Z,28.33
2019-05-22T07:38:35.750Z,23.97
2019-05-22T07:41:08.410Z,20.30
2019-05-22T07:43:41.543Z,20.50
2019-05-22T07:46:09.266Z,25.83
2019-05-22T07:48:38.532Z,22.27
2019-05-22T07:51:08.876Z,22.30
2019-05-22T07:53:38.525Z,18.77
2019-05-22T07:56:11.484Z,16.90
2019-05-22T07:58:41.929Z,18.80
2019-05-22T08:01:12.145Z,12.93
2019-05-22T08:03:43.682Z,13.77
2019-05-22T08:06:14.014Z,14.13
2019-05-22T08:08:45.359Z,12.70
2019-05-22T08:11:15.087Z,20.40
2019-05-22T08:13:45.016Z,14.20
2019-05-22T08:16:16.748Z,15.57
2019-05-22T08:18:46.692Z,13.53
2019-05-22T08:21:16.847Z,11.83
2019-05-22T08:23:46.707Z,14.90
2019-05-22T08:26:19.244Z,15.33
2019-05-22T08:28:49.296Z,11.80
2019-05-22T08:31:20.752Z,11.37
2019-05-22T08:33:50.061Z,11.40
2019-05-22T08:36:19.482Z,11.77
2019-05-22T08:38:49.220Z,11.37
2019-05-22T08:41:23.345Z,9.97
2019-05-22T08:44:14.535Z,11.67
2019-05-22T08:46:24.526Z,9.47
2019-05-22T08:48:54.548Z,7.53
2019-05-22T08:51:23.856Z,10.97
2019-05-22T08:53:54.862Z,17.47
2019-05-22T08:56:24.734Z,10.77
2019-05-22T08:58:55.364Z,8.77
2019-05-22T09:01:25.370Z,9.83
2019-05-22T09:03:54.873Z,9.83
2019-05-22T09:06:24.643Z,10.37
2019-05-22T09:08:53.892Z,12.73
2019-05-22T09:11:23.156Z,12.33
2019-05-22T09:13:52.393Z,11.97
2019-05-22T09:16:22.410Z,10.67
2019-05-22T09:18:53.826Z,11.43
2019-05-22T09:21:24.268Z,8.33
2019-05-22T09:23:54.839Z,6.93
2019-05-22T09:26:25.166Z,9.80
2019-05-22T09:28:54.416Z,8.40
2019-05-22T09:31:23.834Z,10.63
2019-05-22T09:33:53.589Z,9.83
2019-05-22T09:36:23.590Z,8.50
2019-05-22T09:38:52.995Z,7.63
2019-05-22T09:41:22.442Z,4.97
2019-05-22T09:43:51.920Z,5.20
2019-05-22T09:46:21.494Z,7.20
2019-05-22T09:48:50.931Z,7.77
2019-05-22T09:51:20.544Z,8.53
2019-05-22T09:53:51.249Z,4.87
2019-05-22T09:56:21.596Z,2.40
2019-05-22T09:58:51.093Z,2.77
2019-05-22T10:01:20.469Z,2.80
2019-05-22T10:03:49.981Z,3.30
2019-05-22T10:06:21.784Z,1.70
2019-05-22T10:08:51.043Z,3.03
2019-05-22T10:11:21.381Z,1.90
2019-05-22T10:13:51.547Z,3.50
2019-05-22T10:16:21.123Z,1.90
2019-05-22T10:18:53.064Z,4.17
2019-05-22T10:21:23.578Z,3.07
2019-05-22T10:23:53.991Z,2.60
2019-05-22T10:26:23.523Z,2.70
2019-05-22T10:28:53.070Z,2.57
2019-05-22T10:31:22.931Z,1.60
2019-05-22T10:33:52.513Z,2.77
2019-05-22T10:36:22.159Z,2.40
2019-05-22T10:38:51.436Z,2.40
2019-05-22T10:41:21.302Z,3.73
2019-05-22T10:43:50.846Z,3.13
2019-05-22T10:46:20.473Z,4.40
2019-05-22T10:48:50.838Z,3.43
2019-05-22T10:51:20.786Z,2.90
2019-05-22T10:53:50.742Z,3.73
2019-05-22T10:56:20.291Z,4.77
2019-05-22T10:58:49.591Z,2.87
2019-05-22T11:01:19.085Z,2.80
2019-05-22T11:03:48.461Z,4.80
2019-05-22T11:06:17.903Z,3.73
2019-05-22T11:08:47.936Z,3.00
2019-05-22T11:11:17.612Z,3.67
2019-05-22T11:14:00.470Z,5.63
2019-05-22T11:16:19.203Z,5.07
2019-05-22T11:18:48.714Z,2.60
2019-05-22T11:21:18.181Z,2.93
2019-05-22T11:23:52.774Z,3.03
2019-05-22T11:26:18.519Z,3.43
2019-05-22T11:28:47.762Z,3.33
2019-05-22T11:31:17.227Z,3.50
2019-05-22T11:33:47.031Z,3.60
2019-05-22T11:36:18.105Z,8.47
2019-05-22T11:38:47.369Z,6.87
2019-05-22T11:41:17.777Z,5.43
2019-05-22T11:43:47.108Z,6.13
2019-05-22T11:46:17.950Z,7.73
2019-05-22T11:48:47.298Z,7.23
2019-05-22T11:51:16.974Z,7.20
2019-05-22T11:53:46.686Z,7.60
2019-05-22T11:56:16.570Z,29.80
2019-05-22T11:58:45.821Z,15.40
2019-05-22T12:01:15.594Z,2.37
2019-05-22T12:03:44.998Z,8.23
2019-05-22T12:06:15.205Z,5.53
2019-05-22T12:08:45.662Z,15.40
2019-05-22T12:11:18.425Z,7.00
2019-05-22T12:13:48.079Z,29.17
2019-05-22T12:16:18.209Z,37.87
2019-05-22T12:18:48.973Z,5.60
2019-05-22T12:21:18.283Z,3.60
2019-05-22T12:23:47.573Z,2.43
2019-05-22T12:26:17.298Z,4.73
2019-05-22T12:28:46.566Z,2.47
2019-05-22T12:31:16.052Z,3.67
2019-05-22T12:33:45.399Z,1.37
2019-05-22T12:36:14.666Z,2.23
2019-05-22T12:38:44.234Z,1.40
2019-05-22T12:41:15.471Z,2.47
2019-05-22T12:43:45.264Z,1.27
2019-05-22T12:46:14.770Z,1.40
2019-05-22T12:48:45.337Z,1.57
2019-05-22T12:51:15.483Z,2.10
2019-05-22T12:53:45.711Z,3.47
2019-05-22T12:56:15.998Z,2.03
2019-05-22T12:58:46.522Z,2.83
2019-05-22T13:01:16.649Z,2.47
2019-05-22T13:03:48.897Z,2.17
2019-05-22T13:06:19.172Z,4.67
2019-05-22T13:08:49.269Z,2.93
2019-05-22T13:11:21.563Z,3.80
2019-05-22T13:13:50.996Z,1.87
2019-05-22T13:16:20.381Z,4.67
2019-05-22T13:18:52.848Z,4.80
2019-05-22T13:21:28.942Z,2.63
2019-05-22T13:24:01.322Z,2.47
2019-05-22T13:26:31.760Z,5.23
2019-05-22T13:29:02.714Z,2.47
2019-05-22T13:31:32.411Z,2.53
2019-05-22T13:34:03.351Z,5.10
2019-05-22T13:36:33.177Z,2.87
2019-05-22T13:39:04.598Z,2.60
2019-05-22T13:41:33.913Z,1.10
2019-05-22T13:44:05.481Z,1.80
2019-05-22T13:46:35.472Z,3.40
2019-05-22T13:49:05.019Z,3.23
2019-05-22T13:51:35.349Z,2.63
2019-05-22T13:54:05.419Z,2.20
2019-05-22T13:56:35.191Z,2.77
2019-05-22T13:59:07.888Z,1.90
2019-05-22T14:01:37.980Z,2.80
2019-05-22T14:04:07.803Z,2.13
2019-05-22T14:06:37.433Z,1.77
2019-05-22T14:09:13.538Z,3.03
2019-05-22T14:11:43.062Z,3.27
2019-05-22T14:14:12.994Z,2.73
2019-05-22T14:16:48.515Z,5.77
2019-05-22T14:19:14.191Z,2.03
2019-05-22T14:21:50.971Z,2.17
2019-05-22T14:24:14.481Z,2.93
2019-05-22T14:26:44.244Z,1.97
2019-05-22T14:29:13.652Z,5.67
2019-05-22T14:31:42.972Z,4.37
2019-05-22T14:34:13.148Z,3.70
2019-05-22T14:36:43.259Z,2.97
2019-05-22T14:39:14.125Z,3.33
2019-05-22T14:41:43.909Z,3.47
2019-05-22T14:44:13.364Z,2.97
2019-05-22T14:46:43.019Z,2.73
2019-05-22T14:49:12.878Z,1.47
2019-05-22T14:51:42.502Z,1.67
2019-05-22T14:54:12.316Z,1.30
2019-05-22T14:56:43.973Z,5.33
2019-05-22T14:59:13.295Z,1.95
2019-05-22T15:01:42.542Z,4.47
2019-05-22T15:04:12.626Z,4.27
2019-05-22T15:06:42.748Z,2.33
2019-05-22T15:09:12.660Z,4.97
2019-05-22T15:11:42.488Z,3.23
2019-05-22T15:14:11.935Z,1.80
2019-05-22T15:16:41.686Z,1.93
2019-05-22T15:19:11.068Z,2.07
2019-05-22T15:21:40.565Z,1.80
2019-05-22T15:24:09.875Z,2.53
2019-05-22T15:26:39.244Z,1.60
2019-05-22T15:29:09.108Z,2.97
2019-05-22T15:31:39.311Z,4.87
2019-05-22T15:34:08.873Z,5.17
2019-05-22T15:36:39.061Z,2.87
2019-05-22T15:39:11.500Z,1.50
2019-05-22T15:41:40.959Z,3.00
2019-05-22T15:44:11.419Z,4.10
2019-05-22T15:46:43.015Z,1.10
2019-05-22T15:49:13.395Z,2.90
2019-05-22T15:51:42.638Z,2.20
2019-05-22T15:54:13.370Z,2.25
2019-05-22T15:56:44.225Z,2.00
2019-05-22T15:59:15.027Z,3.53
2019-05-22T16:01:45.652Z,1.57
2019-05-22T16:04:18.301Z,2.40
2019-05-22T16:06:48.413Z,6.17
2019-05-22T16:09:19.156Z,2.93
2019-05-22T16:11:52.015Z,4.53
2019-05-22T16:14:23.105Z,1.30
2019-05-22T16:16:53.187Z,0.97
2019-05-22T16:19:24.568Z,2.47
2019-05-22T16:21:56.613Z,1.10
2019-05-22T16:24:26.047Z,1.37
2019-05-22T16:26:56.281Z,1.63
2019-05-22T16:29:26.438Z,2.47
2019-05-22T16:31:57.744Z,3.40
2019-05-22T16:34:28.484Z,6.37
2019-05-22T16:37:03.241Z,4.97
2019-05-22T16:39:30.148Z,5.80
2019-05-22T16:42:01.552Z,5.00
2019-05-22T16:44:31.208Z,5.13
2019-05-22T16:47:00.941Z,7.27
2019-05-22T16:49:30.877Z,7.03
2019-05-22T16:52:00.993Z,6.83
2019-05-22T16:54:32.056Z,5.03
2019-05-22T16:57:02.219Z,6.97
2019-05-22T16:59:36.590Z,7.13
2019-05-22T17:02:06.257Z,6.40
2019-05-22T17:04:35.635Z,5.17
2019-05-22T17:07:06.836Z,6.43
2019-05-22T17:09:37.685Z,5.40
2019-05-22T17:12:09.922Z,7.20
2019-05-22T17:14:40.595Z,7.17
2019-05-22T17:17:11.777Z,6.33
2019-05-22T17:19:42.019Z,7.47
2019-05-22T17:22:12.942Z,6.97
2019-05-22T17:24:43.574Z,5.63
2019-05-22T17:27:17.316Z,5.70
2019-05-22T17:29:48.310Z,6.33
2019-05-22T17:32:17.571Z,5.40
2019-05-22T17:37:26.877Z,10.23
2019-05-22T17:39:56.936Z,7.37
2019-05-22T17:42:28.266Z,6.67
2019-05-22T17:44:57.730Z,7.47
2019-05-22T17:47:29.682Z,8.43
2019-05-22T17:50:01.878Z,9.37
2019-05-22T17:52:32.320Z,5.93
2019-05-22T17:55:02.114Z,8.00
2019-05-22T17:57:32.255Z,5.00
2019-05-22T18:00:02.796Z,5.93
2019-05-22T18:02:35.374Z,4.37
2019-05-22T18:05:06.934Z,7.97
2019-05-22T18:07:37.186Z,4.73
2019-05-22T18:10:08.562Z,6.13
2019-05-22T18:12:39.258Z,6.37
2019-05-22T18:15:11.082Z,6.97
2019-05-22T18:17:40.711Z,6.47
2019-05-22T18:20:11.558Z,8.13
2019-05-22T18:22:41.410Z,8.63
2019-05-22T18:25:11.462Z,16.13
2019-05-22T18:27:40.791Z,21.20
2019-05-22T18:30:11.791Z,18.73
2019-05-22T18:32:44.415Z,23.73
2019-05-22T18:35:15.369Z,15.03
2019-05-22T18:37:44.603Z,13.83
2019-05-22T18:40:14.689Z,17.07
2019-05-22T18:42:43.942Z,17.67
2019-05-22T18:45:14.278Z,20.43
2019-05-22T18:47:44.080Z,19.13
2019-05-22T18:50:14.989Z,19.43
2019-05-22T18:52:47.722Z,13.63
2019-05-22T18:55:18.122Z,13.33
2019-05-22T18:57:47.512Z,10.50
2019-05-22T19:00:21.724Z,8.27
2019-05-22T19:02:51.203Z,10.00
2019-05-22T19:05:24.470Z,11.47
2019-05-22T19:07:54.126Z,10.07
2019-05-22T19:10:24.450Z,10.37
2019-05-22T19:12:53.903Z,11.27
2019-05-22T19:15:24.449Z,10.40
2019-05-22T19:17:53.699Z,12.20
2019-05-22T19:20:22.979Z,11.00
2019-05-22T19:23:00.471Z,17.17
2019-05-22T19:25:24.309Z,15.47
2019-05-22T19:27:54.143Z,13.10
2019-05-22T19:30:24.188Z,15.27
2019-05-22T19:32:53.509Z,14.63
2019-05-22T19:35:22.958Z,17.27
2019-05-22T19:37:52.543Z,15.53
2019-05-22T19:40:22.415Z,21.97
2019-05-22T19:42:52.369Z,19.80
2019-05-22T19:45:22.168Z,21.87
2019-05-22T19:47:52.792Z,19.90
2019-05-22T19:50:24.281Z,19.20
2019-05-22T19:52:55.701Z,20.37
2019-05-22T19:55:27.645Z,22.10
2019-05-22T19:57:57.154Z,23.57
2019-05-22T20:00:28.001Z,31.20
2019-05-22T20:02:58.354Z,29.87
2019-05-22T20:05:28.229Z,33.50
2019-05-22T20:07:57.914Z,32.80
2019-05-22T20:10:27.491Z,36.00
2019-05-22T20:12:57.760Z,37.00
2019-05-22T20:15:28.040Z,32.50
2019-05-22T20:17:57.868Z,33.70
2019-05-22T20:20:27.292Z,35.43
2019-05-22T20:22:57.066Z,37.60
2019-05-22T20:25:26.924Z,39.13
2019-05-22T20:27:58.640Z,42.33
2019-05-22T20:30:28.091Z,41.40
2019-05-22T20:32:59.226Z,33.93
2019-05-22T20:35:29.835Z,39.13
2019-05-22T20:38:00.560Z,39.90
2019-05-22T20:40:30.210Z,34.40
2019-05-22T20:43:00.064Z,25.30
2019-05-22T20:45:29.470Z,25.27
2019-05-22T20:48:12.299Z,49.23
2019-05-22T20:50:41.649Z,61.50
2019-05-22T20:53:12.498Z,49.03
2019-05-22T20:55:43.689Z,49.17
2019-05-22T20:58:14.408Z,46.00
2019-05-22T21:00:45.342Z,41.50
2019-05-22T21:03:16.082Z,41.40
2019-05-22T21:05:46.329Z,41.17
2019-05-22T21:08:18.173Z,43.33
2019-05-22T21:10:48.827Z,38.97
2019-05-22T21:13:20.032Z,49.83
2019-05-22T21:15:51.393Z,93.00
2019-05-22T21:18:23.779Z,100.60
2019-05-22T21:20:55.594Z,77.53
2019-05-22T21:23:25.375Z,69.60
2019-05-22T21:25:55.499Z,77.10
2019-05-22T21:28:25.867Z,75.20
2019-05-22T21:30:55.807Z,52.07
2019-05-22T21:33:25.442Z,49.40
2019-05-22T21:35:55.595Z,39.47
2019-05-22T21:38:26.229Z,32.47
2019-05-22T21:40:57.885Z,29.83
2019-05-22T21:43:28.109Z,39.90
2019-05-22T21:45:57.625Z,42.67
2019-05-22T21:48:28.865Z,40.70
2019-05-22T21:50:58.802Z,53.13
2019-05-22T21:53:29.254Z,48.13
2019-05-22T21:56:04.774Z,65.60
2019-05-22T21:58:29.888Z,70.53
2019-05-22T22:01:16.023Z,44.87
2019-05-22T22:03:47.331Z,112.07
2019-05-22T22:06:17.803Z,106.50
2019-05-22T22:08:48.017Z,271.90
2019-05-22T22:11:18.434Z,276.97
2019-05-22T22:13:48.232Z,354.13
2019-05-22T22:16:17.578Z,230.13
2019-05-22T22:18:47.821Z,241.47
2019-05-22T22:21:17.530Z,466.57
2019-05-22T22:23:47.669Z,342.30
2019-05-22T22:26:25.247Z,367.20
2019-05-22T22:28:49.383Z,252.90
2019-05-22T22:31:19.941Z,198.93
2019-05-22T22:33:54.100Z,177.03
2019-05-22T22:36:23.480Z,294.13
2019-05-22T22:38:54.397Z,288.10
2019-05-22T22:41:24.315Z,146.23
2019-05-22T22:43:55.071Z,478.90
2019-05-22T22:47:08.115Z,338.87
2019-05-22T22:49:38.751Z,264.80
2019-05-22T22:52:09.474Z,239.07
2019-05-22T22:54:39.671Z,203.60
2019-05-22T22:57:09.444Z,81.83
2019-05-22T22:59:38.676Z,277.57
2019-05-22T23:02:12.567Z,227.93
2019-05-22T23:04:44.762Z,131.30
2019-05-22T23:07:16.325Z,157.73
2019-05-22T23:09:46.151Z,137.83
2019-05-22T23:12:16.168Z,69.67
2019-05-22T23:14:54.937Z,261.37
2019-05-22T23:17:26.122Z,240.60
2019-05-22T23:19:55.067Z,250.57
2019-05-22T23:22:24.387Z,200.83
2019-05-22T23:24:56.537Z,356.67
2019-05-22T23:27:27.440Z,260.17
2019-05-22T23:29:57.655Z,262.37
2019-05-22T23:32:28.605Z,207.80
2019-05-22T23:34:59.555Z,156.97
2019-05-22T23:37:30.022Z,211.53
2019-05-22T23:40:00.100Z,246.47
2019-05-22T23:42:35.610Z,207.70
2019-05-22T23:45:11.889Z,154.83
2019-05-22T23:48:02.343Z,197.10
2019-05-22T23:50:35.423Z,210.23
2019-05-22T23:53:05.114Z,256.50
2019-05-22T23:55:36.426Z,116.60
2019-05-22T23:58:08.763Z,114.70
